Time,TemperatureF,DewpointF,PressureIn,WindDirection,WindDirectionDegrees,WindSpeedMPH,WindSpeedGustMPH,Humidity,HourlyPrecipIn,Conditions,Clouds,dailyrainin,SoftwareType,DateUTC
2013-01-21 00:03:00,28.5,19.3,30.20,North,5,2.3,2.3,68,0.00,CLR,,0.00,WeatherDisplay:10.37,2013-01-21 06:03:00,
2013-01-21 00:08:00,28.3,19.1,30.20,North,5,2.3,2.3,68,0.00,CLR,,0.00,WeatherDisplay:10.37,2013-01-21 06:08:00,
2013-01-21 00:13:00,28.2,19.3,30.20,North,350,2.3,2.3,69,0.00,CLR,,0.00,WeatherDisplay:10.37,2013-01-21 06:13:00,
2013-01-21 00:18:00,28.1,19.2,30.20,North,355,3.5,3.5,69,0.00,CLR,,0.00,WeatherDisplay:10.37,2013-01-21 06:18:00,
2013-01-21 00:24:00,28.0,19.5,30.20,North,355,1.1,1.1,70,0.00,CLR,,0.00,WeatherDisplay:10.37,2013-01-21 06:24:00,
2013-01-21 00:29:00,27.9,19.4,30.20,North,355,1.1,1.1,70,0.00,CLR,,0.00,WeatherDisplay:10.37,2013-01-21 06:29:00,
2013-01-21 00:34:00,27.8,19.3,30.20,North,355,1.1,1.1,70,0.00,CLR,,0.00,WeatherDisplay:10.37,2013-01-21 06:34:00,
2013-01-21 00:39:00,27.8,19.3,30.20,North,355,0.0,0.0,70,0.00,CLR,,0.00,WeatherDisplay:10.37,2013-01-21 06:39:00,
2013-01-21 00:44:00,27.6,19.4,30.20,North,355,1.1,1.1,71,0.00,CLR,,0.00,WeatherDisplay:10.37,2013-01-21 06:44:00,
2013-01-21 00:49:00,27.5,19.3,30.20,NNW,345,2.3,2.3,71,0.00,CLR,,0.00,WeatherDisplay:10.37,2013-01-21 06:49:00,
2013-01-21 00:54:00,27.4,19.2,30.20,North,355,1.1,0.0,71,0.00,CLR,,0.00,WeatherDisplay:10.37,2013-01-21 06:54:00,
2013-01-21 00:59:00,27.4,19.2,30.21,NNW,342,1.1,1.1,71,0.00,CLR,,0.00,WeatherDisplay:10.37,2013-01-21 06:59:00,
2013-01-21 01:04:00,27.3,19.1,30.21,NNW,342,2.3,2.3,71,0.00,CLR,,0.00,WeatherDisplay:10.37,2013-01-21 07:04:00,
2013-01-21 01:09:00,27.2,19.0,30.21,NNW,342,1.1,1.1,71,0.00,CLR,,0.00,WeatherDisplay:10.37,2013-01-21 07:09:00,
2013-01-21 01:14:00,27.2,18.7,30.21,NNW,342,1.1,1.1,70,0.00,CLR,,0.00,WeatherDisplay:10.37,2013-01-21 07:14:00,
2013-01-21 01:19:00,27.2,18.7,30.21,NNW,342,0.0,0.0,70,0.00,CLR,,0.00,WeatherDisplay:10.37,2013-01-21 07:19:00,
2013-01-21 01:24:00,27.1,18.6,30.22,NNW,342,1.1,1.1,70,0.00,CLR,,0.00,WeatherDisplay:10.37,2013-01-21 07:24:00,
2013-01-21 01:29:00,27.0,18.8,30.22,NNW,342,1.1,1.1,71,0.00,CLR,,0.00,WeatherDisplay:10.37,2013-01-21 07:29:00,
2013-01-21 01:34:00,27.0,18.8,30.22,NW,314,1.1,1.1,71,0.00,CLR,,0.00,WeatherDisplay:10.37,2013-01-21 07:34:00,
2013-01-21 01:39:00,26.9,18.7,30.22,NW,314,0.0,0.0,71,0.00,CLR,,0.00,WeatherDisplay:10.37,2013-01-21 07:39:00,
2013-01-21 01:44:00,26.9,18.7,30.22,NNW,331,0.0,0.0,71,0.00,CLR,,0.00,WeatherDisplay:10.37,2013-01-21 07:44:00,
2013-01-21 01:49:00,26.9,18.7,30.22,NW,323,0.0,0.0,71,0.00,CLR,,0.00,WeatherDisplay:10.37,2013-01-21 07:49:00,
2013-01-21 01:54:00,26.9,18.7,30.22,NW,323,1.1,1.1,71,0.00,CLR,,0.00,WeatherDisplay:10.37,2013-01-21 07:54:00,
2013-01-21 01:59:00,26.9,18.7,30.22,NW,323,0.0,0.0,71,0.00,CLR,,0.00,WeatherDisplay:10.37,2013-01-21 07:59:00,
2013-01-21 02:04:00,26.9,18.7,30.23,NW,323,0.0,0.0,71,0.00,CLR,,0.00,WeatherDisplay:10.37,2013-01-21 08:04:00,
2013-01-21 02:09:00,26.9,18.7,30.23,NW,325,1.1,1.1,71,0.00,CLR,,0.00,WeatherDisplay:10.37,2013-01-21 08:09:00,
2013-01-21 02:14:00,26.9,18.7,30.23,NW,325,0.0,0.0,71,0.00,CLR,,0.00,WeatherDisplay:10.37,2013-01-21 08:14:00,
2013-01-21 02:19:00,26.9,18.7,30.23,NW,325,0.0,0.0,71,0.00,CLR,,0.00,WeatherDisplay:10.37,2013-01-21 08:19:00,
2013-01-21 02:24:00,26.9,18.7,30.23,NW,325,1.1,1.1,71,0.00,CLR,,0.00,WeatherDisplay:10.37,2013-01-21 08:24:00,
2013-01-21 02:29:00,26.9,18.7,30.23,NNW,329,0.0,0.0,71,0.00,CLR,,0.00,WeatherDisplay:10.37,2013-01-21 08:29:00,
2013-01-21 02:34:00,26.9,18.7,30.23,NNW,330,0.0,0.0,71,0.00,CLR,,0.00,WeatherDisplay:10.37,2013-01-21 08:34:00,
2013-01-21 02:39:00,26.9,18.4,30.23,NNW,329,0.0,0.0,70,0.00,CLR,,0.00,WeatherDisplay:10.37,2013-01-21 08:39:00,
2013-01-21 02:44:00,26.9,18.4,30.23,NNW,330,0.0,0.0,70,0.00,CLR,,0.00,WeatherDisplay:10.37,2013-01-21 08:44:00,
2013-01-21 02:49:00,26.9,18.4,30.23,NNW,330,1.1,0.0,70,0.00,CLR,,0.00,WeatherDisplay:10.37,2013-01-21 08:49:00,
2013-01-21 02:54:00,26.9,18.4,30.24,NW,325,0.0,0.0,70,0.00,CLR,,0.00,WeatherDisplay:10.37,2013-01-21 08:54:00,
2013-01-21 02:59:00,26.9,18.4,30.23,NNW,330,3.5,3.5,70,0.00,CLR,,0.00,WeatherDisplay:10.37,2013-01-21 08:59:00,
2013-01-21 03:04:00,27.0,18.2,30.23,NNW,337,2.3,2.3,69,0.00,CLR,,0.00,WeatherDisplay:10.37,2013-01-21 09:04:00,
2013-01-21 03:09:00,27.1,17.9,30.24,NNW,337,3.5,3.5,68,0.00,CLR,,0.00,WeatherDisplay:10.37,2013-01-21 09:09:00,
2013-01-21 03:14:00,27.2,17.7,30.24,NNW,331,2.3,2.3,67,0.00,CLR,,0.00,WeatherDisplay:10.37,2013-01-21 09:14:00,
2013-01-21 03:19:00,27.3,17.8,30.24,NNW,342,2.3,2.3,67,0.00,CLR,,0.00,WeatherDisplay:10.37,2013-01-21 09:19:00,
2013-01-21 03:24:00,27.3,17.8,30.24,NW,317,2.3,2.3,67,0.00,CLR,,0.00,WeatherDisplay:10.37,2013-01-21 09:24:00,
2013-01-21 03:29:00,27.4,17.9,30.24,NW,321,2.3,2.3,67,0.00,CLR,,0.00,WeatherDisplay:10.37,2013-01-21 09:29:00,
2013-01-21 03:34:00,27.4,18.2,30.24,NW,321,5.8,5.8,68,0.00,CLR,,0.00,WeatherDisplay:10.37,2013-01-21 09:34:00,
2013-01-21 03:39:00,27.4,18.2,30.24,NNW,331,6.9,6.9,68,0.00,CLR,,0.00,WeatherDisplay:10.37,2013-01-21 09:39:00,
2013-01-21 03:44:00,27.4,18.2,30.25,NNW,327,3.5,3.5,68,0.00,CLR,,0.00,WeatherDisplay:10.37,2013-01-21 09:44:00,
2013-01-21 03:49:00,27.5,18.3,30.24,NNW,328,7.0,7.0,68,0.00,CLR,,0.00,WeatherDisplay:10.37,2013-01-21 09:49:00,
2013-01-21 03:54:00,27.4,18.2,30.24,NNW,338,5.8,5.8,68,0.00,CLR,,0.00,WeatherDisplay:10.37,2013-01-21 09:54:00,
2013-01-21 03:59:00,27.4,18.2,30.24,NNW,346,6.9,6.9,68,0.00,CLR,,0.00,WeatherDisplay:10.37,2013-01-21 09:59:00,
2013-01-21 04:04:00,27.4,18.2,30.24,NW,326,3.5,3.5,68,0.00,CLR,,0.00,WeatherDisplay:10.37,2013-01-21 10:04:00,
2013-01-21 04:09:00,27.4,18.2,30.24,NNW,329,3.5,3.5,68,0.00,CLR,,0.00,WeatherDisplay:10.37,2013-01-21 10:09:00,
2013-01-21 04:14:00,27.4,18.2,30.24,NNW,343,2.0,2.0,68,0.00,CLR,,0.00,WeatherDisplay:10.37,2013-01-21 10:14:00,
2013-01-21 04:19:00,27.3,18.1,30.24,NW,321,3.0,3.0,68,0.00,CLR,,0.00,WeatherDisplay:10.37,2013-01-21 10:19:00,
2013-01-21 04:24:00,27.3,18.5,30.24,NNW,340,1.1,1.1,69,0.00,CLR,,0.00,WeatherDisplay:10.37,2013-01-21 10:24:00,
2013-01-21 04:29:00,27.2,18.4,30.24,NNW,340,1.1,0.0,69,0.00,CLR,,0.00,WeatherDisplay:10.37,2013-01-21 10:29:00,
2013-01-21 04:34:00,27.2,18.4,30.25,NNW,340,2.3,2.3,69,0.00,CLR,,0.00,WeatherDisplay:10.37,2013-01-21 10:34:00,
2013-01-21 04:39:00,27.2,18.7,30.25,NW,319,1.1,0.0,70,0.00,CLR,,0.00,WeatherDisplay:10.37,2013-01-21 10:39:00,
2013-01-21 04:44:00,27.2,18.4,30.25,NNW,334,2.3,2.3,69,0.00,CLR,,0.00,WeatherDisplay:10.37,2013-01-21 10:44:00,
2013-01-21 04:49:00,27.1,18.3,30.25,NW,325,3.5,3.5,69,0.00,CLR,,0.00,WeatherDisplay:10.37,2013-01-21 10:49:00,
2013-01-21 04:54:00,27.1,18.3,30.25,NNW,332,6.9,6.9,69,0.00,CLR,,0.00,WeatherDisplay:10.37,2013-01-21 10:54:00,
2013-01-21 04:59:00,27.1,17.6,30.25,NNW,339,8.1,8.1,67,0.00,CLR,,0.00,WeatherDisplay:10.37,2013-01-21 10:59:00,
2013-01-21 05:04:00,27.1,17.6,30.26,NNW,346,3.5,3.5,67,0.00,CLR,,0.00,WeatherDisplay:10.37,2013-01-21 11:04:00,
2013-01-21 05:09:00,27.1,17.2,30.26,North,360,8.1,8.1,66,0.00,CLR,,0.00,WeatherDisplay:10.37,2013-01-21 11:09:00,
2013-01-21 05:14:00,27.0,16.8,30.26,North,355,3.5,3.5,65,0.00,CLR,,0.00,WeatherDisplay:10.37,2013-01-21 11:14:00,
2013-01-21 05:19:00,26.9,17.0,30.26,NW,319,4.6,4.6,66,0.00,CLR,,0.00,WeatherDisplay:10.37,2013-01-21 11:19:00,
2013-01-21 05:24:00,26.7,17.2,30.27,North,350,4.6,4.6,67,0.00,CLR,,0.00,WeatherDisplay:10.37,2013-01-21 11:24:00,
2013-01-21 05:29:00,26.6,16.8,30.27,NW,309,3.5,3.5,66,0.00,CLR,,0.00,WeatherDisplay:10.37,2013-01-21 11:29:00,
2013-01-21 05:35:00,26.4,16.6,30.27,NNW,339,9.2,9.2,66,0.00,CLR,,0.00,WeatherDisplay:10.37,2013-01-21 11:35:00,
2013-01-21 05:40:00,26.4,16.6,30.27,NW,321,3.5,3.5,66,0.00,CLR,,0.00,WeatherDisplay:10.37,2013-01-21 11:40:00,
2013-01-21 05:45:00,26.3,16.5,30.27,NW,319,5.8,5.8,66,0.00,CLR,,0.00,WeatherDisplay:10.37,2013-01-21 11:45:00,
2013-01-21 05:50:00,26.2,16.4,30.27,WNW,287,5.8,5.8,66,0.00,CLR,,0.00,WeatherDisplay:10.37,2013-01-21 11:50:00,
2013-01-21 05:55:00,26.2,16.4,30.27,NNW,327,4.6,4.6,66,0.00,CLR,,0.00,WeatherDisplay:10.37,2013-01-21 11:55:00,
2013-01-21 06:00:00,26.1,16.3,30.27,NW,321,4.0,4.0,66,0.00,CLR,,0.00,WeatherDisplay:10.37,2013-01-21 12:00:00,
2013-01-21 06:05:00,26.0,16.2,30.27,WNW,295,2.3,2.3,66,0.00,CLR,,0.00,WeatherDisplay:10.37,2013-01-21 12:05:00,
2013-01-21 06:10:00,25.9,16.1,30.28,NW,306,2.3,2.3,66,0.00,CLR,,0.00,WeatherDisplay:10.37,2013-01-21 12:10:00,
2013-01-21 06:15:00,25.7,15.9,30.28,NNW,334,2.3,2.3,66,0.00,CLR,,0.00,WeatherDisplay:10.37,2013-01-21 12:15:00,
2013-01-21 06:20:00,25.7,15.9,30.28,North,355,6.9,6.9,66,0.00,CLR,,0.00,WeatherDisplay:10.37,2013-01-21 12:20:00,
2013-01-21 06:25:00,25.6,16.2,30.29,NW,325,3.0,3.0,67,0.00,CLR,,0.00,WeatherDisplay:10.37,2013-01-21 12:25:00,
2013-01-21 06:30:00,25.4,16.0,30.29,NW,315,10.4,10.4,67,0.00,CLR,,0.00,WeatherDisplay:10.37,2013-01-21 12:30:00,
2013-01-21 06:35:00,25.4,16.0,30.29,WNW,303,4.0,4.0,67,0.00,CLR,,0.00,WeatherDisplay:10.37,2013-01-21 12:35:00,
2013-01-21 06:40:00,25.2,16.1,30.29,NNW,340,2.3,2.3,68,0.00,CLR,,0.00,WeatherDisplay:10.37,2013-01-21 12:40:00,
2013-01-21 06:45:00,25.2,16.1,30.29,NNW,339,3.5,3.5,68,0.00,CLR,,0.00,WeatherDisplay:10.37,2013-01-21 12:45:00,
2013-01-21 06:50:00,25.1,16.0,30.30,NNW,338,15.0,15.0,68,0.00,CLR,,0.00,WeatherDisplay:10.37,2013-01-21 12:50:00,
2013-01-21 06:55:00,25.2,15.8,30.30,North,355,6.9,6.9,67,0.00,CLR,,0.00,WeatherDisplay:10.37,2013-01-21 12:55:00,
2013-01-21 07:00:00,25.1,15.3,30.30,NNW,331,6.9,6.9,66,0.00,CLR,,0.00,WeatherDisplay:10.37,2013-01-21 13:00:00,
2013-01-21 07:05:00,25.1,15.3,30.30,NW,321,8.1,8.1,66,0.00,CLR,,0.00,WeatherDisplay:10.37,2013-01-21 13:05:00,
2013-01-21 07:10:00,25.1,15.3,30.30,NNW,348,3.5,3.5,66,0.00,CLR,,0.00,WeatherDisplay:10.37,2013-01-21 13:10:00,
2013-01-21 07:15:00,25.0,15.2,30.30,NW,313,9.0,9.0,66,0.00,CLR,,0.00,WeatherDisplay:10.37,2013-01-21 13:15:00,
2013-01-21 07:20:00,24.9,15.5,30.31,North,360,3.5,3.5,67,0.00,CLR,,0.00,WeatherDisplay:10.37,2013-01-21 13:20:00,
2013-01-21 07:25:00,24.8,15.4,30.31,NNW,344,3.5,3.5,67,0.00,CLR,,0.00,WeatherDisplay:10.37,2013-01-21 13:25:00,
2013-01-21 07:30:00,24.8,15.7,30.30,NNW,335,6.9,6.9,68,0.00,CLR,,0.00,WeatherDisplay:10.37,2013-01-21 13:30:00,
2013-01-21 07:35:00,24.7,15.6,30.31,NW,322,3.5,3.5,68,0.00,CLR,,0.00,WeatherDisplay:10.37,2013-01-21 13:35:00,
2013-01-21 07:40:00,24.7,16.0,30.31,NNW,346,3.5,3.5,69,0.00,CLR,,0.00,WeatherDisplay:10.37,2013-01-21 13:40:00,
2013-01-21 07:45:00,24.8,15.7,30.30,NW,322,6.9,6.9,68,0.00,CLR,,0.00,WeatherDisplay:10.37,2013-01-21 13:45:00,
2013-01-21 07:50:00,24.8,15.7,30.30,NW,319,9.2,9.2,68,0.00,CLR,,0.00,WeatherDisplay:10.37,2013-01-21 13:50:00,
2013-01-21 07:55:00,24.7,15.3,30.31,NW,317,8.1,8.1,67,0.00,CLR,,0.00,WeatherDisplay:10.37,2013-01-21 13:55:00,
2013-01-21 08:00:00,24.7,15.3,30.31,NNW,348,3.5,3.5,67,0.00,CLR,,0.00,WeatherDisplay:10.37,2013-01-21 14:00:00,
2013-01-21 08:05:00,24.7,15.6,30.31,NNW,327,6.0,6.0,68,0.00,CLR,,0.00,WeatherDisplay:10.37,2013-01-21 14:05:00,
2013-01-21 08:10:00,24.8,15.4,30.31,NW,325,9.2,9.2,67,0.00,CLR,,0.00,WeatherDisplay:10.37,2013-01-21 14:10:00,
2013-01-21 08:15:00,24.9,15.5,30.31,NW,324,6.0,6.0,67,0.00,CLR,,0.00,WeatherDisplay:10.37,2013-01-21 14:15:00,
2013-01-21 08:20:00,25.1,15.3,30.31,NNW,332,3.5,3.5,66,0.00,CLR,,0.00,WeatherDisplay:10.37,2013-01-21 14:20:00,
2013-01-21 08:25:00,25.3,15.9,30.31,NNW,330,3.5,3.5,67,0.00,CLR,,0.00,WeatherDisplay:10.37,2013-01-21 14:25:00,
2013-01-21 08:30:00,25.6,15.5,30.32,NW,315,9.0,9.0,65,0.00,CLR,,0.00,WeatherDisplay:10.37,2013-01-21 14:30:00,
2013-01-21 08:35:00,25.7,15.2,30.32,NNE,21,11.5,11.5,64,0.00,CLR,,0.00,WeatherDisplay:10.37,2013-01-21 14:35:00,
2013-01-21 08:40:00,25.7,14.8,30.32,West,265,3.5,3.5,63,0.00,CLR,,0.00,WeatherDisplay:10.37,2013-01-21 14:40:00,
2013-01-21 08:45:00,26.1,15.2,30.32,North,9,9.2,9.2,63,0.00,CLR,,0.00,WeatherDisplay:10.37,2013-01-21 14:45:00,
2013-01-21 08:50:00,26.2,14.2,30.32,NW,316,3.5,3.5,60,0.00,CLR,,0.00,WeatherDisplay:10.37,2013-01-21 14:50:00,
2013-01-21 08:55:00,26.2,13.4,30.32,North,9,3.5,3.5,58,0.00,CLR,,0.00,WeatherDisplay:10.37,2013-01-21 14:55:00,
2013-01-21 09:00:00,26.4,14.0,30.32,NW,325,6.9,6.9,59,0.00,CLR,,0.00,WeatherDisplay:10.37,2013-01-21 15:00:00,
2013-01-21 09:05:00,26.4,14.0,30.32,NNW,327,7.0,7.0,59,0.00,CLR,,0.00,WeatherDisplay:10.37,2013-01-21 15:05:00,
2013-01-21 09:10:00,26.5,14.1,30.32,NNW,335,3.5,3.5,59,0.00,CLR,,0.00,WeatherDisplay:10.37,2013-01-21 15:10:00,
2013-01-21 09:15:00,26.7,13.9,30.32,North,11,3.5,3.5,58,0.00,CLR,,0.00,WeatherDisplay:10.37,2013-01-21 15:15:00,
2013-01-21 09:20:00,26.8,14.0,30.32,WNW,290,5.8,5.8,58,0.00,CLR,,0.00,WeatherDisplay:10.37,2013-01-21 15:20:00,
2013-01-21 09:25:00,26.9,13.7,30.32,NW,306,2.3,2.3,57,0.00,CLR,,0.00,WeatherDisplay:10.37,2013-01-21 15:25:00,
2013-01-21 09:30:00,27.1,13.9,30.32,West,263,5.0,5.0,57,0.00,CLR,,0.00,WeatherDisplay:10.37,2013-01-21 15:30:00,
2013-01-21 09:35:00,27.4,13.7,30.33,North,350,5.8,5.8,56,0.00,CLR,,0.00,WeatherDisplay:10.37,2013-01-21 15:35:00,
2013-01-21 09:40:00,27.3,13.7,30.33,NW,317,8.1,8.1,56,0.00,CLR,,0.00,WeatherDisplay:10.37,2013-01-21 15:40:00,
2013-01-21 09:45:00,27.3,13.7,30.33,NW,305,6.0,6.0,56,0.00,CLR,,0.00,WeatherDisplay:10.37,2013-01-21 15:45:00,
2013-01-21 09:50:00,27.5,14.2,30.33,WNW,286,10.4,10.4,57,0.00,CLR,,0.00,WeatherDisplay:10.37,2013-01-21 15:50:00,
2013-01-21 09:55:00,27.7,14.4,30.33,NW,313,4.0,4.0,57,0.00,CLR,,0.00,WeatherDisplay:10.37,2013-01-21 15:55:00,
2013-01-21 10:00:00,27.9,14.2,30.33,NW,318,11.5,11.5,56,0.00,CLR,,0.00,WeatherDisplay:10.37,2013-01-21 16:00:00,
2013-01-21 10:05:00,28.1,14.4,30.33,WNW,293,4.0,4.0,56,0.00,CLR,,0.00,WeatherDisplay:10.37,2013-01-21 16:05:00,
2013-01-21 10:10:00,28.5,15.2,30.33,North,355,8.1,8.1,57,0.00,CLR,,0.00,WeatherDisplay:10.37,2013-01-21 16:10:00,
2013-01-21 10:15:00,28.6,14.5,30.33,NW,323,3.5,3.5,55,0.00,CLR,,0.00,WeatherDisplay:10.37,2013-01-21 16:15:00,
2013-01-21 10:20:00,28.8,14.2,30.33,WNW,290,8.1,8.1,54,0.00,CLR,,0.00,WeatherDisplay:10.37,2013-01-21 16:20:00,
2013-01-21 10:25:00,28.8,14.2,30.33,West,272,7.0,7.0,54,0.00,CLR,,0.00,WeatherDisplay:10.37,2013-01-21 16:25:00,
2013-01-21 10:30:00,28.6,13.6,30.33,WNW,284,10.4,10.4,53,0.00,CLR,,0.00,WeatherDisplay:10.37,2013-01-21 16:30:00,
2013-01-21 10:35:00,28.7,14.6,30.33,NW,305,5.0,5.0,55,0.00,CLR,,0.00,WeatherDisplay:10.37,2013-01-21 16:35:00,
2013-01-21 10:40:00,28.8,14.6,30.32,West,265,9.2,9.2,55,0.00,CLR,,0.00,WeatherDisplay:10.37,2013-01-21 16:40:00,
2013-01-21 10:45:00,29.4,15.2,30.32,West,275,16.0,16.0,55,0.00,CLR,,0.00,WeatherDisplay:10.37,2013-01-21 16:45:00,
2013-01-21 10:50:00,29.6,14.1,30.32,West,269,11.5,11.5,52,0.00,CLR,,0.00,WeatherDisplay:10.37,2013-01-21 16:50:00,
2013-01-21 10:55:00,29.4,13.9,30.32,WNW,286,13.8,13.8,52,0.00,CLR,,0.00,WeatherDisplay:10.37,2013-01-21 16:55:00,
2013-01-21 11:00:00,29.7,13.8,30.32,WNW,283,9.2,9.2,51,0.00,CLR,,0.00,WeatherDisplay:10.37,2013-01-21 17:00:00,
2013-01-21 11:05:00,29.6,13.7,30.31,WNW,288,10.4,10.4,51,0.00,CLR,,0.00,WeatherDisplay:10.37,2013-01-21 17:05:00,
2013-01-21 11:10:00,30.0,15.3,30.31,NW,315,4.6,4.6,54,0.00,CLR,,0.00,WeatherDisplay:10.37,2013-01-21 17:10:00,
2013-01-21 11:15:00,30.3,14.3,30.31,NNW,348,3.5,3.5,51,0.00,CLR,,0.00,WeatherDisplay:10.37,2013-01-21 17:15:00,
2013-01-21 11:20:00,30.4,14.9,30.31,WSW,256,10.4,10.4,52,0.00,CLR,,0.00,WeatherDisplay:10.37,2013-01-21 17:20:00,
2013-01-21 11:25:00,30.7,15.1,30.30,West,263,9.0,9.0,52,0.00,CLR,,0.00,WeatherDisplay:10.37,2013-01-21 17:25:00,
2013-01-21 11:30:00,30.6,14.6,30.30,WNW,290,13.8,13.8,51,0.00,CLR,,0.00,WeatherDisplay:10.37,2013-01-21 17:30:00,
2013-01-21 11:36:00,30.5,14.9,30.30,NW,325,9.2,9.2,52,0.00,CLR,,0.00,WeatherDisplay:10.37,2013-01-21 17:36:00,
2013-01-21 11:41:00,30.6,14.1,30.30,NW,307,11.5,11.5,50,0.00,CLR,,0.00,WeatherDisplay:10.37,2013-01-21 17:41:00,
2013-01-21 11:46:00,30.7,14.7,30.30,West,263,9.2,9.2,51,0.00,CLR,,0.00,WeatherDisplay:10.37,2013-01-21 17:46:00,
2013-01-21 11:51:00,31.2,15.2,30.30,NNW,328,11.5,11.5,51,0.00,CLR,,0.00,WeatherDisplay:10.37,2013-01-21 17:51:00,
2013-01-21 11:56:00,31.4,16.2,30.30,West,261,9.2,9.2,53,0.00,CLR,,0.00,WeatherDisplay:10.37,2013-01-21 17:56:00,
2013-01-21 12:01:00,31.5,14.5,30.30,WNW,284,11.5,11.5,49,0.00,CLR,,0.00,WeatherDisplay:10.37,2013-01-21 18:01:00,
2013-01-21 12:06:00,32.1,15.5,30.29,West,265,13.8,13.8,50,0.00,CLR,,0.00,WeatherDisplay:10.37,2013-01-21 18:06:00,
2013-01-21 12:11:00,31.8,14.3,30.28,West,269,12.7,12.7,48,0.00,CLR,,0.00,WeatherDisplay:10.37,2013-01-21 18:11:00,
2013-01-21 12:16:00,31.8,14.8,30.28,NNW,345,9.2,9.2,49,0.00,CLR,,0.00,WeatherDisplay:10.37,2013-01-21 18:16:00,
2013-01-21 12:21:00,32.0,15.0,30.28,West,277,13.8,13.8,49,0.00,CLR,,0.00,WeatherDisplay:10.37,2013-01-21 18:21:00,
2013-01-21 12:26:00,32.6,16.0,30.28,WNW,290,11.5,11.5,50,0.00,CLR,,0.00,WeatherDisplay:10.37,2013-01-21 18:26:00,
2013-01-21 12:31:00,32.5,14.5,30.28,West,269,11.5,11.5,47,0.00,CLR,,0.00,WeatherDisplay:10.37,2013-01-21 18:31:00,
2013-01-21 12:36:00,32.6,15.1,30.27,WSW,252,10.4,10.4,48,0.00,CLR,,0.00,WeatherDisplay:10.37,2013-01-21 18:36:00,
2013-01-21 12:41:00,32.9,15.8,30.27,West,279,10.4,10.4,49,0.00,CLR,,0.00,WeatherDisplay:10.37,2013-01-21 18:41:00,
2013-01-21 12:46:00,33.0,15.9,30.27,West,276,11.0,11.0,49,0.00,CLR,,0.00,WeatherDisplay:10.37,2013-01-21 18:46:00,
2013-01-21 12:51:00,33.0,14.4,30.27,NNW,346,10.4,10.4,46,0.00,CLR,,0.00,WeatherDisplay:10.37,2013-01-21 18:51:00,
2013-01-21 12:56:00,32.7,14.2,30.27,WNW,287,12.7,12.7,46,0.00,CLR,,0.00,WeatherDisplay:10.37,2013-01-21 18:56:00,
2013-01-21 13:01:00,32.9,14.4,30.26,West,275,12.7,12.7,46,0.00,CLR,,0.00,WeatherDisplay:10.37,2013-01-21 19:01:00,
2013-01-21 13:06:00,32.9,14.8,30.26,WSW,243,11.5,11.5,47,0.00,CLR,,0.00,WeatherDisplay:10.37,2013-01-21 19:06:00,
2013-01-21 13:11:00,33.2,15.6,30.26,WSW,250,9.0,9.0,48,0.00,CLR,,0.00,WeatherDisplay:10.37,2013-01-21 19:11:00,
2013-01-21 13:16:00,34.1,16.9,30.26,NW,309,5.8,5.8,49,0.00,CLR,,0.00,WeatherDisplay:10.37,2013-01-21 19:16:00,
2013-01-21 13:21:00,34.4,17.2,30.26,NNW,327,6.9,6.9,49,0.00,CLR,,0.00,WeatherDisplay:10.37,2013-01-21 19:21:00,
2013-01-21 13:26:00,34.2,16.5,30.26,West,272,11.5,11.5,48,0.00,CLR,,0.00,WeatherDisplay:10.37,2013-01-21 19:26:00,
2013-01-21 13:31:00,34.5,16.8,30.26,NNW,330,8.1,8.1,48,0.00,CLR,,0.00,WeatherDisplay:10.37,2013-01-21 19:31:00,
2013-01-21 13:36:00,34.6,15.4,30.25,WNW,293,12.0,12.0,45,0.00,CLR,,0.00,WeatherDisplay:10.37,2013-01-21 19:36:00,
2013-01-21 13:41:00,34.4,16.7,30.25,West,273,10.4,10.4,48,0.00,CLR,,0.00,WeatherDisplay:10.37,2013-01-21 19:41:00,
2013-01-21 13:46:00,34.9,17.2,30.25,North,9,4.6,4.6,48,0.00,CLR,,0.00,WeatherDisplay:10.37,2013-01-21 19:46:00,
2013-01-21 13:51:00,35.2,17.4,30.25,WSW,238,9.0,9.0,48,0.00,CLR,,0.00,WeatherDisplay:10.37,2013-01-21 19:51:00,
2013-01-21 13:56:00,35.5,17.2,30.25,NW,310,8.1,8.1,47,0.00,CLR,,0.00,WeatherDisplay:10.37,2013-01-21 19:56:00,
2013-01-21 14:01:00,35.3,16.6,30.25,WSW,250,11.5,11.5,46,0.00,CLR,,0.00,WeatherDisplay:10.37,2013-01-21 20:01:00,
2013-01-21 14:06:00,35.8,17.5,30.25,West,271,10.4,10.4,47,0.00,CLR,,0.00,WeatherDisplay:10.37,2013-01-21 20:06:00,
2013-01-21 14:11:00,35.7,15.9,30.25,NW,325,3.5,3.5,44,0.00,CLR,,0.00,WeatherDisplay:10.37,2013-01-21 20:11:00,
2013-01-21 14:16:00,36.0,17.7,30.25,WNW,296,9.2,9.2,47,0.00,CLR,,0.00,WeatherDisplay:10.37,2013-01-21 20:16:00,
2013-01-21 14:21:00,36.2,17.4,30.26,NW,314,11.5,11.5,46,0.00,CLR,,0.00,WeatherDisplay:10.37,2013-01-21 20:21:00,
2013-01-21 14:26:00,36.2,17.4,30.26,West,266,4.6,4.6,46,0.00,CLR,,0.00,WeatherDisplay:10.37,2013-01-21 20:26:00,
2013-01-21 14:31:00,36.4,16.5,30.25,NNW,327,6.0,6.0,44,0.00,CLR,,0.00,WeatherDisplay:10.37,2013-01-21 20:31:00,
2013-01-21 14:36:00,36.1,16.8,30.25,NNW,327,8.0,8.0,45,0.00,CLR,,0.00,WeatherDisplay:10.37,2013-01-21 20:36:00,
2013-01-21 14:41:00,36.1,17.3,30.25,West,270,8.1,8.1,46,0.00,CLR,,0.00,WeatherDisplay:10.37,2013-01-21 20:41:00,
2013-01-21 14:46:00,36.3,17.5,30.25,WNW,294,6.9,6.9,46,0.00,CLR,,0.00,WeatherDisplay:10.37,2013-01-21 20:46:00,
2013-01-21 14:51:00,36.5,16.1,30.25,NNW,341,10.4,10.4,43,0.00,CLR,,0.00,WeatherDisplay:10.37,2013-01-21 20:51:00,
2013-01-21 14:56:00,35.9,16.1,30.26,NNW,329,3.5,3.5,44,0.00,CLR,,0.00,WeatherDisplay:10.37,2013-01-21 20:56:00,
2013-01-21 15:02:00,35.8,16.5,30.26,NW,307,10.4,10.4,45,0.00,CLR,,0.00,WeatherDisplay:10.37,2013-01-21 21:02:00,
2013-01-21 15:07:00,36.4,16.5,30.25,West,259,14.0,14.0,44,0.00,CLR,,0.00,WeatherDisplay:10.37,2013-01-21 21:07:00,
2013-01-21 15:12:00,36.6,15.6,30.26,NNW,327,5.8,5.8,42,0.00,CLR,,0.00,WeatherDisplay:10.37,2013-01-21 21:12:00,
2013-01-21 15:17:00,36.1,16.8,30.25,WNW,294,3.5,3.5,45,0.00,CLR,,0.00,WeatherDisplay:10.37,2013-01-21 21:17:00,
2013-01-21 15:22:00,35.9,15.5,30.26,North,5,3.5,3.5,43,0.00,CLR,,0.00,WeatherDisplay:10.37,2013-01-21 21:22:00,
2013-01-21 15:27:00,35.5,15.2,30.25,NW,313,3.5,3.5,43,0.00,CLR,,0.00,WeatherDisplay:10.37,2013-01-21 21:27:00,
2013-01-21 15:32:00,35.6,15.8,30.26,NW,321,6.0,6.0,44,0.00,CLR,,0.00,WeatherDisplay:10.37,2013-01-21 21:32:00,
2013-01-21 15:37:00,35.6,15.3,30.25,WNW,294,4.6,4.6,43,0.00,CLR,,0.00,WeatherDisplay:10.37,2013-01-21 21:37:00,
2013-01-21 15:42:00,35.7,15.4,30.26,NNW,336,5.8,5.8,43,0.00,CLR,,0.00,WeatherDisplay:10.37,2013-01-21 21:42:00,
2013-01-21 15:47:00,35.8,14.9,30.26,WNW,288,5.8,5.8,42,0.00,CLR,,0.00,WeatherDisplay:10.37,2013-01-21 21:47:00,
2013-01-21 15:52:00,36.0,15.6,30.26,North,355,3.5,3.5,43,0.00,CLR,,0.00,WeatherDisplay:10.37,2013-01-21 21:52:00,
2013-01-21 15:57:00,35.7,14.8,30.26,WNW,294,4.6,4.6,42,0.00,CLR,,0.00,WeatherDisplay:10.37,2013-01-21 21:57:00,
2013-01-21 16:02:00,35.6,15.3,30.26,West,269,6.9,6.9,43,0.00,CLR,,0.00,WeatherDisplay:10.37,2013-01-21 22:02:00,
2013-01-21 16:07:00,35.7,15.4,30.26,WNW,285,10.4,10.4,43,0.00,CLR,,0.00,WeatherDisplay:10.37,2013-01-21 22:07:00,
2013-01-21 16:12:00,35.6,15.3,30.26,NNW,330,7.0,7.0,43,0.00,CLR,,0.00,WeatherDisplay:10.37,2013-01-21 22:12:00,
2013-01-21 16:17:00,35.6,15.8,30.27,NW,319,4.6,4.6,44,0.00,CLR,,0.00,WeatherDisplay:10.37,2013-01-21 22:17:00,
2013-01-21 16:22:00,35.4,15.1,30.27,NNW,342,4.6,4.6,43,0.00,CLR,,0.00,WeatherDisplay:10.37,2013-01-21 22:22:00,
2013-01-21 16:27:00,35.0,14.7,30.27,WNW,299,13.0,13.0,43,0.00,CLR,,0.00,WeatherDisplay:10.37,2013-01-21 22:27:00,
2013-01-21 16:32:00,34.7,14.5,30.27,NNW,329,4.6,4.6,43,0.00,CLR,,0.00,WeatherDisplay:10.37,2013-01-21 22:32:00,
2013-01-21 16:37:00,34.6,14.4,30.27,North,360,2.3,2.3,43,0.00,CLR,,0.00,WeatherDisplay:10.37,2013-01-21 22:37:00,
2013-01-21 16:42:00,34.5,14.3,30.27,North,355,3.5,3.5,43,0.00,CLR,,0.00,WeatherDisplay:10.37,2013-01-21 22:42:00,
2013-01-21 16:47:00,34.2,14.5,30.27,North,349,3.5,3.5,44,0.00,CLR,,0.00,WeatherDisplay:10.37,2013-01-21 22:47:00,
2013-01-21 16:52:00,33.9,14.3,30.27,WNW,295,4.6,4.6,44,0.00,CLR,,0.00,WeatherDisplay:10.37,2013-01-21 22:52:00,
2013-01-21 16:57:00,33.6,14.5,30.27,NW,325,2.3,2.3,45,0.00,CLR,,0.00,WeatherDisplay:10.37,2013-01-21 22:57:00,
2013-01-21 17:02:00,33.2,14.6,30.27,North,5,1.1,1.1,46,0.00,CLR,,0.00,WeatherDisplay:10.37,2013-01-21 23:02:00,
2013-01-21 17:07:00,32.8,14.3,30.27,NNW,331,2.3,2.3,46,0.00,CLR,,0.00,WeatherDisplay:10.37,2013-01-21 23:07:00,
2013-01-21 17:12:00,32.4,13.9,30.27,NNW,329,3.0,3.0,46,0.00,CLR,,0.00,WeatherDisplay:10.37,2013-01-21 23:12:00,
2013-01-21 17:17:00,32.1,13.6,30.27,NNW,346,3.5,3.5,46,0.00,CLR,,0.00,WeatherDisplay:10.37,2013-01-21 23:17:00,
2013-01-21 17:22:00,31.9,13.9,30.27,NNW,330,2.3,2.3,47,0.00,CLR,,0.00,WeatherDisplay:10.37,2013-01-21 23:22:00,
2013-01-21 17:27:00,31.6,13.7,30.27,NNW,348,2.3,2.3,47,0.00,CLR,,0.00,WeatherDisplay:10.37,2013-01-21 23:27:00,
2013-01-21 17:32:00,31.2,13.3,30.27,NNW,334,3.5,3.5,47,0.00,CLR,,0.00,WeatherDisplay:10.37,2013-01-21 23:32:00,
2013-01-21 17:37:00,31.0,13.1,30.28,NNW,348,2.3,2.3,47,0.00,CLR,,0.00,WeatherDisplay:10.37,2013-01-21 23:37:00,
2013-01-21 17:42:00,30.7,13.3,30.28,NNW,329,2.3,2.3,48,0.00,CLR,,0.00,WeatherDisplay:10.37,2013-01-21 23:42:00,
2013-01-21 17:47:00,30.5,12.6,30.28,NNW,336,2.3,2.3,47,0.00,CLR,,0.00,WeatherDisplay:10.37,2013-01-21 23:47:00,
2013-01-21 17:52:00,30.4,12.5,30.28,North,355,1.1,1.1,47,0.00,CLR,,0.00,WeatherDisplay:10.37,2013-01-21 23:52:00,
2013-01-21 17:57:00,30.2,12.4,30.28,NNW,334,1.1,1.1,47,0.00,CLR,,0.00,WeatherDisplay:10.37,2013-01-21 23:57:00,
2013-01-21 18:02:00,30.1,12.3,30.28,NNW,344,2.3,2.3,47,0.00,CLR,,0.00,WeatherDisplay:10.37,2013-01-22 00:02:00,
2013-01-21 18:07:00,29.9,12.6,30.28,NNW,344,1.1,1.1,48,0.00,CLR,,0.00,WeatherDisplay:10.37,2013-01-22 00:07:00,
2013-01-21 18:12:00,29.6,12.3,30.28,NNW,340,2.3,2.3,48,0.00,CLR,,0.00,WeatherDisplay:10.37,2013-01-22 00:12:00,
2013-01-21 18:17:00,29.4,12.1,30.28,NW,326,2.3,2.3,48,0.00,CLR,,0.00,WeatherDisplay:10.37,2013-01-22 00:17:00,
2013-01-21 18:22:00,29.2,11.9,30.28,NW,324,2.3,2.3,48,0.00,CLR,,0.00,WeatherDisplay:10.37,2013-01-22 00:22:00,
2013-01-21 18:27:00,29.1,12.3,30.29,NNW,329,1.1,0.0,49,0.00,CLR,,0.00,WeatherDisplay:10.37,2013-01-22 00:27:00,
2013-01-21 18:32:00,28.9,12.1,30.29,North,349,3.5,3.5,49,0.00,CLR,,0.00,WeatherDisplay:10.37,2013-01-22 00:32:00,
2013-01-21 18:37:00,28.8,12.0,30.28,NNW,334,2.3,2.3,49,0.00,CLR,,0.00,WeatherDisplay:10.37,2013-01-22 00:37:00,
2013-01-21 18:42:00,28.7,11.9,30.28,North,349,2.3,2.3,49,0.00,CLR,,0.00,WeatherDisplay:10.37,2013-01-22 00:42:00,
2013-01-21 18:47:00,28.7,11.9,30.28,NNW,342,3.5,3.5,49,0.00,CLR,,0.00,WeatherDisplay:10.37,2013-01-22 00:47:00,
2013-01-21 18:52:00,28.6,11.8,30.28,NNW,336,3.5,3.5,49,0.00,CLR,,0.00,WeatherDisplay:10.37,2013-01-22 00:52:00,
2013-01-21 18:57:00,28.4,11.6,30.28,NNW,333,2.3,2.3,49,0.00,CLR,,0.00,WeatherDisplay:10.37,2013-01-22 00:57:00,
2013-01-21 19:02:00,28.3,11.6,30.29,NNW,337,3.5,3.5,49,0.00,CLR,,0.00,WeatherDisplay:10.37,2013-01-22 01:02:00,
2013-01-21 19:07:00,28.3,11.1,30.29,NNW,334,5.8,5.8,48,0.00,CLR,,0.00,WeatherDisplay:10.37,2013-01-22 01:07:00,
2013-01-21 19:12:00,28.2,11.0,30.29,NNW,328,3.5,3.5,48,0.00,CLR,,0.00,WeatherDisplay:10.37,2013-01-22 01:12:00,
2013-01-21 19:17:00,28.1,10.9,30.29,NNW,338,1.1,1.1,48,0.00,CLR,,0.00,WeatherDisplay:10.37,2013-01-22 01:17:00,
2013-01-21 19:22:00,28.0,11.3,30.29,NW,325,3.5,3.5,49,0.00,CLR,,0.00,WeatherDisplay:10.37,2013-01-22 01:22:00,
2013-01-21 19:27:00,27.9,11.2,30.29,North,360,2.0,2.0,49,0.00,CLR,,0.00,WeatherDisplay:10.37,2013-01-22 01:27:00,
2013-01-21 19:32:00,27.8,11.1,30.29,NNW,344,2.3,2.3,49,0.00,CLR,,0.00,WeatherDisplay:10.37,2013-01-22 01:32:00,
2013-01-21 19:37:00,27.7,11.5,30.29,NW,320,2.3,2.3,50,0.00,CLR,,0.00,WeatherDisplay:10.37,2013-01-22 01:37:00,
2013-01-21 19:42:00,27.5,10.8,30.29,WNW,295,3.5,3.5,49,0.00,CLR,,0.00,WeatherDisplay:10.37,2013-01-22 01:42:00,
2013-01-21 19:47:00,27.4,10.7,30.29,WNW,295,0.0,0.0,49,0.00,CLR,,0.00,WeatherDisplay:10.37,2013-01-22 01:47:00,
2013-01-21 19:52:00,27.3,10.6,30.29,NW,312,1.1,1.1,49,0.00,CLR,,0.00,WeatherDisplay:10.37,2013-01-22 01:52:00,
2013-01-21 19:57:00,27.2,10.5,30.29,NW,320,0.0,0.0,49,0.00,CLR,,0.00,WeatherDisplay:10.37,2013-01-22 01:57:00,
2013-01-21 20:02:00,27.1,10.4,30.30,NW,325,2.3,0.0,49,0.00,CLR,,0.00,WeatherDisplay:10.37,2013-01-22 02:02:00,
2013-01-21 20:07:00,27.1,10.4,30.29,NW,326,0.0,0.0,49,0.00,CLR,,0.00,WeatherDisplay:10.37,2013-01-22 02:07:00,
2013-01-21 20:12:00,27.0,10.8,30.29,NW,326,0.0,0.0,50,0.00,CLR,,0.00,WeatherDisplay:10.37,2013-01-22 02:12:00,
2013-01-21 20:17:00,26.9,10.7,30.29,NNW,336,1.1,1.1,50,0.00,CLR,,0.00,WeatherDisplay:10.37,2013-01-22 02:17:00,
2013-01-21 20:22:00,26.7,11.0,30.30,North,360,2.3,2.3,51,0.00,CLR,,0.00,WeatherDisplay:10.37,2013-01-22 02:22:00,
2013-01-21 20:27:00,26.5,11.2,30.30,North,5,3.5,3.5,52,0.00,CLR,,0.00,WeatherDisplay:10.37,2013-01-22 02:27:00,
2013-01-21 20:32:00,26.2,11.8,30.30,North,5,3.0,3.0,54,0.00,CLR,,0.00,WeatherDisplay:10.37,2013-01-22 02:32:00,
2013-01-21 20:37:00,25.9,11.5,30.30,NNE,12,2.3,2.3,54,0.00,CLR,,0.00,WeatherDisplay:10.37,2013-01-22 02:37:00,
2013-01-21 20:42:00,25.6,11.2,30.30,North,5,2.3,2.3,54,0.00,CLR,,0.00,WeatherDisplay:10.37,2013-01-22 02:42:00,
2013-01-21 20:47:00,25.4,11.5,30.30,North,5,2.3,2.3,55,0.00,CLR,,0.00,WeatherDisplay:10.37,2013-01-22 02:47:00,
2013-01-21 20:52:00,25.2,11.3,30.30,North,360,2.3,2.3,55,0.00,CLR,,0.00,WeatherDisplay:10.37,2013-01-22 02:52:00,
2013-01-21 20:57:00,25.1,11.2,30.31,NNW,338,2.3,2.3,55,0.00,CLR,,0.00,WeatherDisplay:10.37,2013-01-22 02:57:00,
2013-01-21 21:03:00,25.0,11.1,30.30,North,355,0.0,0.2,55,0.00,CLR,,0.00,WeatherDisplay:10.37,2013-01-22 03:03:00,
2013-01-21 21:08:00,25.0,11.1,30.31,North,351,1.1,1.1,55,0.00,CLR,,0.00,WeatherDisplay:10.37,2013-01-22 03:08:00,
2013-01-21 21:13:00,24.9,11.4,30.31,NNW,342,1.0,1.0,56,0.00,CLR,,0.00,WeatherDisplay:10.37,2013-01-22 03:13:00,
2013-01-21 21:18:00,24.8,11.3,30.30,NNW,342,0.0,0.0,56,0.00,CLR,,0.00,WeatherDisplay:10.37,2013-01-22 03:18:00,
2013-01-21 21:23:00,24.7,10.8,30.31,NNW,329,2.3,2.3,55,0.00,CLR,,0.00,WeatherDisplay:10.37,2013-01-22 03:23:00,
2013-01-21 21:28:00,24.6,10.7,30.31,North,355,2.3,2.3,55,0.00,CLR,,0.00,WeatherDisplay:10.37,2013-01-22 03:28:00,
2013-01-21 21:33:00,24.7,10.8,30.31,North,5,3.5,3.5,55,0.00,CLR,,0.00,WeatherDisplay:10.37,2013-01-22 03:33:00,
2013-01-21 21:38:00,24.7,10.8,30.31,North,9,2.3,2.3,55,0.00,CLR,,0.00,WeatherDisplay:10.37,2013-01-22 03:38:00,
2013-01-21 21:43:00,24.7,11.2,30.31,North,10,2.3,2.3,56,0.00,CLR,,0.00,WeatherDisplay:10.37,2013-01-22 03:43:00,
2013-01-21 21:48:00,24.7,11.2,30.31,North,360,1.1,1.1,56,0.00,CLR,,0.00,WeatherDisplay:10.37,2013-01-22 03:48:00,
2013-01-21 21:53:00,24.7,10.8,30.31,North,9,3.5,3.5,55,0.00,CLR,,0.00,WeatherDisplay:10.37,2013-01-22 03:53:00,
2013-01-21 21:58:00,24.6,10.3,30.31,NNW,333,4.6,4.6,54,0.00,CLR,,0.00,WeatherDisplay:10.37,2013-01-22 03:58:00,
2013-01-21 22:03:00,24.5,9.8,30.32,North,350,3.5,3.5,53,0.00,CLR,,0.00,WeatherDisplay:10.37,2013-01-22 04:03:00,
2013-01-21 22:08:00,24.4,9.7,30.32,North,355,3.5,3.5,53,0.00,CLR,,0.00,WeatherDisplay:10.37,2013-01-22 04:08:00,
2013-01-21 22:13:00,24.3,10.0,30.32,NW,324,2.0,2.0,54,0.00,CLR,,0.00,WeatherDisplay:10.37,2013-01-22 04:13:00,
2013-01-21 22:18:00,24.3,9.6,30.32,North,5,3.5,3.5,53,0.00,CLR,,0.00,WeatherDisplay:10.37,2013-01-22 04:18:00,
2013-01-21 22:23:00,24.2,9.5,30.32,North,355,2.3,2.3,53,0.00,CLR,,0.00,WeatherDisplay:10.37,2013-01-22 04:23:00,
2013-01-21 22:28:00,24.1,9.4,30.32,North,355,3.5,3.5,53,0.00,CLR,,0.00,WeatherDisplay:10.37,2013-01-22 04:28:00,
2013-01-21 22:33:00,24.0,9.3,30.33,North,5,3.5,3.5,53,0.00,CLR,,0.00,WeatherDisplay:10.37,2013-01-22 04:33:00,
2013-01-21 22:38:00,24.0,9.3,30.33,North,360,2.3,2.3,53,0.00,CLR,,0.00,WeatherDisplay:10.37,2013-01-22 04:38:00,
2013-01-21 22:43:00,23.9,8.8,30.33,NNW,332,3.5,3.5,52,0.00,CLR,,0.00,WeatherDisplay:10.37,2013-01-22 04:43:00,
2013-01-21 22:48:00,23.9,8.4,30.33,NNE,28,2.0,2.0,51,0.00,CLR,,0.00,WeatherDisplay:10.37,2013-01-22 04:48:00,
2013-01-21 22:53:00,23.8,8.3,30.33,North,360,1.1,0.0,51,0.00,CLR,,0.00,WeatherDisplay:10.37,2013-01-22 04:53:00,
2013-01-21 22:58:00,23.7,8.6,30.33,North,5,1.1,1.1,52,0.00,CLR,,0.00,WeatherDisplay:10.37,2013-01-22 04:58:00,
2013-01-21 23:00:00,23.7,8.6,30.33,North,360,3.5,3.5,52,0.00,CLR,,0.00,WeatherDisplay:10.37,2013-01-22 05:00:00,
2013-01-21 23:01:00,23.7,8.6,30.33,NW,319,3.5,3.5,52,0.00,CLR,,0.00,WeatherDisplay:10.37,2013-01-22 05:01:00,
2013-01-21 23:07:00,23.6,7.7,30.33,North,355,3.5,3.5,50,0.00,CLR,,0.00,WeatherDisplay:10.37,2013-01-22 05:07:00,
2013-01-21 23:12:00,23.6,8.1,30.33,NW,325,3.5,3.5,51,0.00,CLR,,0.00,WeatherDisplay:10.37,2013-01-22 05:12:00,
2013-01-21 23:17:00,23.5,8.0,30.33,NNW,336,3.5,3.5,51,0.00,CLR,,0.00,WeatherDisplay:10.37,2013-01-22 05:17:00,
2013-01-21 23:22:00,23.5,8.0,30.33,NW,326,5.8,5.8,51,0.00,CLR,,0.00,WeatherDisplay:10.37,2013-01-22 05:22:00,
2013-01-21 23:27:00,23.5,8.0,30.33,North,355,2.3,2.3,51,0.00,CLR,,0.00,WeatherDisplay:10.37,2013-01-22 05:27:00,
2013-01-21 23:32:00,23.4,7.9,30.33,North,5,5.8,5.8,51,0.00,CLR,,0.00,WeatherDisplay:10.37,2013-01-22 05:32:00,
2013-01-21 23:37:00,23.4,7.5,30.33,North,355,3.5,3.5,50,0.00,CLR,,0.00,WeatherDisplay:10.37,2013-01-22 05:37:00,
2013-01-21 23:42:00,23.3,7.4,30.33,NNW,338,3.5,3.5,50,0.00,CLR,,0.00,WeatherDisplay:10.37,2013-01-22 05:42:00,
2013-01-21 23:47:00,23.3,7.4,30.34,North,350,2.3,2.3,50,0.00,CLR,,0.00,WeatherDisplay:10.37,2013-01-22 05:47:00,
2013-01-21 23:52:00,23.2,6.8,30.33,NNW,328,2.3,2.3,49,0.00,CLR,,0.00,WeatherDisplay:10.37,2013-01-22 05:52:00,
2013-01-21 23:57:00,23.2,7.3,30.34,NNW,339,2.3,2.3,50,0.00,CLR,,0.00,WeatherDisplay:10.37,2013-01-22 05:57:00,